sensor_id;sensor_type;location;lat;lon;timestamp;temperature;humidity
15700;DHT22;7950;42.744;23.174;2022-10-16T00:01:12;6.30;99.90
15700;DHT22;7950;42.744;23.174;2022-10-16T00:03:43;6.30;99.90
15700;DHT22;7950;42.744;23.174;2022-10-16T00:06:13;6.20;99.90
15700;DHT22;7950;42.744;23.174;2022-10-16T00:08:42;6.20;99.90
15700;DHT22;7950;42.744;23.174;2022-10-16T00:11:14;6.20;99.90
15700;DHT22;7950;42.744;23.174;2022-10-16T00:13:44;6.20;99.90
15700;DHT22;7950;42.744;23.174;2022-10-16T00:16:15;6.20;99.90
15700;DHT22;7950;42.744;23.174;2022-10-16T00:18:43;6.20;99.90
15700;DHT22;7950;42.744;23.174;2022-10-16T00:21:14;6.10;99.90
15700;DHT22;7950;42.744;23.174;2022-10-16T00:23:43;6.10;99.90
15700;DHT22;7950;42.744;23.174;2022-10-16T00:26:15;6.10;99.90
15700;DHT22;7950;42.744;23.174;2022-10-16T00:28:45;6.10;99.90
15700;DHT22;7950;42.744;23.174;2022-10-16T00:31:20;6.10;99.90
15700;DHT22;7950;42.744;23.174;2022-10-16T00:34:03;6.10;99.90
15700;DHT22;7950;42.744;23.174;2022-10-16T00:36:32;6.10;99.90
15700;DHT22;7950;42.744;23.174;2022-10-16T00:39:01;6.10;99.90
15700;DHT22;7950;42.744;23.174;2022-10-16T00:41:30;6.10;99.90
15700;DHT22;7950;42.744;23.174;2022-10-16T00:44:00;6.10;99.90
15700;DHT22;7950;42.744;23.174;2022-10-16T00:46:35;6.10;99.90
15700;DHT22;7950;42.744;23.174;2022-10-16T00:49:13;6.10;99.90
15700;DHT22;7950;42.744;23.174;2022-10-16T00:51:45;6.00;99.90
15700;DHT22;7950;42.744;23.174;2022-10-16T00:54:17;5.90;99.90
15700;DHT22;7950;42.744;23.174;2022-10-16T00:56:49;6.00;99.90
15700;DHT22;7950;42.744;23.174;2022-10-16T00:59:20;5.90;99.90
15700;DHT22;7950;42.744;23.174;2022-10-16T01:01:53;5.80;99.90
15700;DHT22;7950;42.744;23.174;2022-10-16T01:04:23;5.80;99.90
15700;DHT22;7950;42.744;23.174;2022-10-16T01:06:56;5.80;99.90
15700;DHT22;7950;42.744;23.174;2022-10-16T01:09:34;5.80;99.90
15700;DHT22;7950;42.744;23.174;2022-10-16T01:12:09;5.70;99.90
15700;DHT22;7950;42.744;23.174;2022-10-16T01:14:42;5.70;99.90
15700;DHT22;7950;42.744;23.174;2022-10-16T01:17:19;5.60;99.90
15700;DHT22;7950;42.744;23.174;2022-10-16T01:20:01;5.60;99.90
15700;DHT22;7950;42.744;23.174;2022-10-16T01:22:43;5.60;99.90
15700;DHT22;7950;42.744;23.174;2022-10-16T01:25:16;5.70;99.90
15700;DHT22;7950;42.744;23.174;2022-10-16T01:27:48;5.70;99.90
15700;DHT22;7950;42.744;23.174;2022-10-16T01:30:21;5.60;99.90
15700;DHT22;7950;42.744;23.174;2022-10-16T01:32:55;5.60;99.90
15700;DHT22;7950;42.744;23.174;2022-10-16T01:35:28;5.70;99.90
15700;DHT22;7950;42.744;23.174;2022-10-16T01:38:02;5.60;99.90
15700;DHT22;7950;42.744;23.174;2022-10-16T01:40:34;5.60;99.90
15700;DHT22;7950;42.744;23.174;2022-10-16T01:43:08;5.60;99.90
15700;DHT22;7950;42.744;23.174;2022-10-16T01:45:40;5.60;99.90
15700;DHT22;7950;42.744;23.174;2022-10-16T01:48:12;5.60;99.90
15700;DHT22;7950;42.744;23.174;2022-10-16T01:50:44;5.60;99.90
15700;DHT22;7950;42.744;23.174;2022-10-16T01:53:13;5.50;99.90
15700;DHT22;7950;42.744;23.174;2022-10-16T01:55:45;5.50;99.90
15700;DHT22;7950;42.744;23.174;2022-10-16T01:58:17;5.50;99.90
15700;DHT22;7950;42.744;23.174;2022-10-16T02:00:47;5.40;99.90
15700;DHT22;7950;42.744;23.174;2022-10-16T02:03:18;5.50;99.90
15700;DHT22;7950;42.744;23.174;2022-10-16T02:05:51;5.50;99.90
15700;DHT22;7950;42.744;23.174;2022-10-16T02:08:23;5.50;99.90
15700;DHT22;7950;42.744;23.174;2022-10-16T02:10:53;5.40;99.90
15700;DHT22;7950;42.744;23.174;2022-10-16T02:13:29;5.40;99.90
15700;DHT22;7950;42.744;23.174;2022-10-16T02:15:58;5.40;99.90
15700;DHT22;7950;42.744;23.174;2022-10-16T02:18:27;5.40;99.90
15700;DHT22;7950;42.744;23.174;2022-10-16T02:21:00;5.30;99.90
15700;DHT22;7950;42.744;23.174;2022-10-16T02:23:36;5.40;99.90
15700;DHT22;7950;42.744;23.174;2022-10-16T02:26:11;5.40;99.90
15700;DHT22;7950;42.744;23.174;2022-10-16T02:28:45;5.30;99.90
15700;DHT22;7950;42.744;23.174;2022-10-16T02:31:20;5.30;99.90
15700;DHT22;7950;42.744;23.174;2022-10-16T02:33:52;5.20;99.90
15700;DHT22;7950;42.744;23.174;2022-10-16T02:36:21;5.20;99.90
15700;DHT22;7950;42.744;23.174;2022-10-16T02:38:50;5.20;99.90
15700;DHT22;7950;42.744;23.174;2022-10-16T02:41:21;5.20;99.90
15700;DHT22;7950;42.744;23.174;2022-10-16T02:43:52;5.20;99.90
15700;DHT22;7950;42.744;23.174;2022-10-16T02:46:22;5.20;99.90
15700;DHT22;7950;42.744;23.174;2022-10-16T02:48:51;5.20;99.90
15700;DHT22;7950;42.744;23.174;2022-10-16T02:51:19;5.20;99.90
15700;DHT22;7950;42.744;23.174;2022-10-16T02:53:48;5.10;99.90
15700;DHT22;7950;42.744;23.174;2022-10-16T02:56:16;5.10;99.90
15700;DHT22;7950;42.744;23.174;2022-10-16T02:58:52;5.20;99.90
15700;DHT22;7950;42.744;23.174;2022-10-16T03:01:21;5.20;99.90
15700;DHT22;7950;42.744;23.174;2022-10-16T03:04:05;5.20;99.90
15700;DHT22;7950;42.744;23.174;2022-10-16T03:06:34;5.20;99.90
15700;DHT22;7950;42.744;23.174;2022-10-16T03:09:03;5.10;99.90
15700;DHT22;7950;42.744;23.174;2022-10-16T03:11:31;5.10;99.90
15700;DHT22;7950;42.744;23.174;2022-10-16T03:14:01;5.00;99.90
15700;DHT22;7950;42.744;23.174;2022-10-16T03:16:30;5.00;99.90
15700;DHT22;7950;42.744;23.174;2022-10-16T03:18:59;5.00;99.90
15700;DHT22;7950;42.744;23.174;2022-10-16T03:21:27;5.00;99.90
15700;DHT22;7950;42.744;23.174;2022-10-16T03:23:56;5.00;99.90
15700;DHT22;7950;42.744;23.174;2022-10-16T03:26:25;4.90;99.90
15700;DHT22;7950;42.744;23.174;2022-10-16T03:28:54;5.00;99.90
15700;DHT22;7950;42.744;23.174;2022-10-16T03:31:24;4.90;99.90
15700;DHT22;7950;42.744;23.174;2022-10-16T03:33:53;4.90;99.90
15700;DHT22;7950;42.744;23.174;2022-10-16T03:36:47;4.80;99.90
15700;DHT22;7950;42.744;23.174;2022-10-16T03:39:15;4.80;99.90
15700;DHT22;7950;42.744;23.174;2022-10-16T03:41:44;4.70;99.90
15700;DHT22;7950;42.744;23.174;2022-10-16T03:44:14;4.60;99.90
15700;DHT22;7950;42.744;23.174;2022-10-16T03:46:44;4.70;99.90
15700;DHT22;7950;42.744;23.174;2022-10-16T03:49:13;4.70;99.90
15700;DHT22;7950;42.744;23.174;2022-10-16T03:51:42;4.70;99.90
15700;DHT22;7950;42.744;23.174;2022-10-16T03:54:11;4.70;99.90
15700;DHT22;7950;42.744;23.174;2022-10-16T03:56:53;4.70;99.90
15700;DHT22;7950;42.744;23.174;2022-10-16T03:59:22;4.70;99.90
15700;DHT22;7950;42.744;23.174;2022-10-16T04:01:52;4.60;99.90
15700;DHT22;7950;42.744;23.174;2022-10-16T04:04:20;4.60;99.90
15700;DHT22;7950;42.744;23.174;2022-10-16T04:06:49;4.60;99.90
15700;DHT22;7950;42.744;23.174;2022-10-16T04:09:17;4.60;99.90
15700;DHT22;7950;42.744;23.174;2022-10-16T04:11:46;4.60;99.90
15700;DHT22;7950;42.744;23.174;2022-10-16T04:14:15;4.50;99.90
15700;DHT22;7950;42.744;23.174;2022-10-16T04:16:44;4.60;99.90
15700;DHT22;7950;42.744;23.174;2022-10-16T04:19:17;4.60;99.90
15700;DHT22;7950;42.744;23.174;2022-10-16T04:21:58;4.70;99.90
15700;DHT22;7950;42.744;23.174;2022-10-16T04:24:27;4.70;99.90
15700;DHT22;7950;42.744;23.174;2022-10-16T04:26:56;4.60;99.90
15700;DHT22;7950;42.744;23.174;2022-10-16T04:29:24;4.60;99.90
15700;DHT22;7950;42.744;23.174;2022-10-16T04:31:53;4.50;99.90
15700;DHT22;7950;42.744;23.174;2022-10-16T04:34:23;4.50;99.90
15700;DHT22;7950;42.744;23.174;2022-10-16T04:36:52;4.60;99.90
15700;DHT22;7950;42.744;23.174;2022-10-16T04:39:21;4.60;99.90
15700;DHT22;7950;42.744;23.174;2022-10-16T04:41:49;4.60;99.90
15700;DHT22;7950;42.744;23.174;2022-10-16T04:44:18;4.50;99.90
15700;DHT22;7950;42.744;23.174;2022-10-16T04:46:49;4.50;99.90
15700;DHT22;7950;42.744;23.174;2022-10-16T04:49:18;4.60;99.90
15700;DHT22;7950;42.744;23.174;2022-10-16T04:51:48;4.60;99.90
15700;DHT22;7950;42.744;23.174;2022-10-16T04:54:16;4.60;99.90
15700;DHT22;7950;42.744;23.174;2022-10-16T04:56:45;4.70;99.90
15700;DHT22;7950;42.744;23.174;2022-10-16T04:59:18;4.70;99.90
15700;DHT22;7950;42.744;23.174;2022-10-16T05:01:46;4.90;99.90
15700;DHT22;7950;42.744;23.174;2022-10-16T05:04:40;5.00;99.90
15700;DHT22;7950;42.744;23.174;2022-10-16T05:07:10;5.10;99.90
15700;DHT22;7950;42.744;23.174;2022-10-16T05:09:41;5.10;99.90
15700;DHT22;7950;42.744;23.174;2022-10-16T05:12:10;5.20;99.90
15700;DHT22;7950;42.744;23.174;2022-10-16T05:14:39;5.40;99.90
15700;DHT22;7950;42.744;23.174;2022-10-16T05:17:07;5.50;99.90
15700;DHT22;7950;42.744;23.174;2022-10-16T05:19:41;5.60;99.90
15700;DHT22;7950;42.744;23.174;2022-10-16T05:22:11;5.90;99.90
15700;DHT22;7950;42.744;23.174;2022-10-16T05:24:40;6.10;99.90
15700;DHT22;7950;42.744;23.174;2022-10-16T05:27:09;6.30;99.90
15700;DHT22;7950;42.744;23.174;2022-10-16T05:29:46;6.50;99.90
15700;DHT22;7950;42.744;23.174;2022-10-16T05:32:16;6.60;99.90
15700;DHT22;7950;42.744;23.174;2022-10-16T05:34:45;6.80;99.90
15700;DHT22;7950;42.744;23.174;2022-10-16T05:37:40;7.00;99.90
15700;DHT22;7950;42.744;23.174;2022-10-16T05:40:10;7.30;99.90
15700;DHT22;7950;42.744;23.174;2022-10-16T05:42:39;7.50;99.90
15700;DHT22;7950;42.744;23.174;2022-10-16T05:45:10;7.70;99.90
15700;DHT22;7950;42.744;23.174;2022-10-16T05:47:39;7.80;99.90
15700;DHT22;7950;42.744;23.174;2022-10-16T05:50:08;8.00;99.90
15700;DHT22;7950;42.744;23.174;2022-10-16T05:52:44;8.30;99.90
15700;DHT22;7950;42.744;23.174;2022-10-16T05:55:13;8.60;99.90
15700;DHT22;7950;42.744;23.174;2022-10-16T05:57:53;8.90;99.90
15700;DHT22;7950;42.744;23.174;2022-10-16T06:00:22;9.30;99.90
15700;DHT22;7950;42.744;23.174;2022-10-16T06:02:50;9.50;99.90
15700;DHT22;7950;42.744;23.174;2022-10-16T06:05:19;9.70;99.90
15700;DHT22;7950;42.744;23.174;2022-10-16T06:07:49;10.00;99.90
15700;DHT22;7950;42.744;23.174;2022-10-16T06:10:17;10.30;99.90
15700;DHT22;7950;42.744;23.174;2022-10-16T06:12:46;10.60;99.90
15700;DHT22;7950;42.744;23.174;2022-10-16T06:15:14;10.90;99.90
15700;DHT22;7950;42.744;23.174;2022-10-16T06:17:42;11.20;99.90
15700;DHT22;7950;42.744;23.174;2022-10-16T06:20:11;11.50;99.90
15700;DHT22;7950;42.744;23.174;2022-10-16T06:22:39;11.70;99.90
15700;DHT22;7950;42.744;23.174;2022-10-16T06:25:09;11.90;99.90
15700;DHT22;7950;42.744;23.174;2022-10-16T06:27:39;12.00;99.90
15700;DHT22;7950;42.744;23.174;2022-10-16T06:30:09;12.20;99.90
15700;DHT22;7950;42.744;23.174;2022-10-16T06:32:37;12.40;99.90
15700;DHT22;7950;42.744;23.174;2022-10-16T06:35:31;12.50;99.90
15700;DHT22;7950;42.744;23.174;2022-10-16T06:38:00;12.70;99.90
15700;DHT22;7950;42.744;23.174;2022-10-16T06:40:30;12.90;99.90
15700;DHT22;7950;42.744;23.174;2022-10-16T06:42:59;13.10;99.90
15700;DHT22;7950;42.744;23.174;2022-10-16T06:45:27;13.30;99.90
15700;DHT22;7950;42.744;23.174;2022-10-16T06:47:56;13.40;99.90
15700;DHT22;7950;42.744;23.174;2022-10-16T06:50:24;13.60;99.90
15700;DHT22;7950;42.744;23.174;2022-10-16T06:52:53;13.80;99.90
15700;DHT22;7950;42.744;23.174;2022-10-16T06:55:21;14.00;99.90
15700;DHT22;7950;42.744;23.174;2022-10-16T06:57:51;14.10;99.90
15700;DHT22;7950;42.744;23.174;2022-10-16T07:00:19;14.30;99.90
15700;DHT22;7950;42.744;23.174;2022-10-16T07:02:48;14.50;99.90
15700;DHT22;7950;42.744;23.174;2022-10-16T07:05:16;14.60;99.90
15700;DHT22;7950;42.744;23.174;2022-10-16T07:07:45;14.70;99.90
15700;DHT22;7950;42.744;23.174;2022-10-16T07:10:13;14.70;99.90
15700;DHT22;7950;42.744;23.174;2022-10-16T07:12:42;14.70;99.90
15700;DHT22;7950;42.744;23.174;2022-10-16T07:15:13;14.90;99.90
15700;DHT22;7950;42.744;23.174;2022-10-16T07:17:42;15.10;99.90
15700;DHT22;7950;42.744;23.174;2022-10-16T07:20:10;15.20;99.90
15700;DHT22;7950;42.744;23.174;2022-10-16T07:22:39;15.20;99.90
15700;DHT22;7950;42.744;23.174;2022-10-16T07:25:08;15.20;99.90
15700;DHT22;7950;42.744;23.174;2022-10-16T07:27:37;15.30;99.90
15700;DHT22;7950;42.744;23.174;2022-10-16T07:30:07;15.50;99.90
15700;DHT22;7950;42.744;23.174;2022-10-16T07:32:37;15.80;99.90
15700;DHT22;7950;42.744;23.174;2022-10-16T07:35:07;16.10;99.90
15700;DHT22;7950;42.744;23.174;2022-10-16T07:37:35;16.30;99.90
15700;DHT22;7950;42.744;23.174;2022-10-16T07:40:05;16.30;99.90
15700;DHT22;7950;42.744;23.174;2022-10-16T07:42:34;16.20;99.90
15700;DHT22;7950;42.744;23.174;2022-10-16T07:45:02;16.10;99.90
15700;DHT22;7950;42.744;23.174;2022-10-16T07:47:31;15.90;99.90
15700;DHT22;7950;42.744;23.174;2022-10-16T07:50:01;15.90;99.90
15700;DHT22;7950;42.744;23.174;2022-10-16T07:52:30;15.90;99.90
15700;DHT22;7950;42.744;23.174;2022-10-16T07:54:58;16.00;99.90
15700;DHT22;7950;42.744;23.174;2022-10-16T07:57:27;16.00;99.90
15700;DHT22;7950;42.744;23.174;2022-10-16T07:59:56;16.20;99.90
15700;DHT22;7950;42.744;23.174;2022-10-16T08:02:24;16.50;99.90
15700;DHT22;7950;42.744;23.174;2022-10-16T08:04:53;16.60;99.90
15700;DHT22;7950;42.744;23.174;2022-10-16T08:07:23;16.70;99.90
15700;DHT22;7950;42.744;23.174;2022-10-16T08:09:52;16.80;99.90
15700;DHT22;7950;42.744;23.174;2022-10-16T08:12:20;16.80;99.90
15700;DHT22;7950;42.744;23.174;2022-10-16T08:14:49;16.80;99.90
15700;DHT22;7950;42.744;23.174;2022-10-16T08:17:17;17.00;99.90
15700;DHT22;7950;42.744;23.174;2022-10-16T08:19:46;17.00;99.90
15700;DHT22;7950;42.744;23.174;2022-10-16T08:22:15;17.10;99.90
15700;DHT22;7950;42.744;23.174;2022-10-16T08:24:45;17.20;99.90
15700;DHT22;7950;42.744;23.174;2022-10-16T08:27:13;17.30;99.90
15700;DHT22;7950;42.744;23.174;2022-10-16T08:29:42;17.40;99.60
15700;DHT22;7950;42.744;23.174;2022-10-16T08:32:10;17.50;98.70
15700;DHT22;7950;42.744;23.174;2022-10-16T08:34:39;17.60;99.60
15700;DHT22;7950;42.744;23.174;2022-10-16T08:37:07;17.90;97.50
15700;DHT22;7950;42.744;23.174;2022-10-16T08:39:38;18.00;97.20
15700;DHT22;7950;42.744;23.174;2022-10-16T08:42:28;18.00;96.70
15700;DHT22;7950;42.744;23.174;2022-10-16T08:45:24;18.20;96.80
15700;DHT22;7950;42.744;23.174;2022-10-16T08:48:09;18.10;94.50
15700;DHT22;7950;42.744;23.174;2022-10-16T08:50:42;18.20;95.10
15700;DHT22;7950;42.744;23.174;2022-10-16T08:53:15;18.40;92.80
15700;DHT22;7950;42.744;23.174;2022-10-16T08:55:49;18.20;92.70
15700;DHT22;7950;42.744;23.174;2022-10-16T08:58:20;18.30;91.80
15700;DHT22;7950;42.744;23.174;2022-10-16T09:00:54;18.30;93.10
15700;DHT22;7950;42.744;23.174;2022-10-16T09:03:38;18.50;91.70
15700;DHT22;7950;42.744;23.174;2022-10-16T09:06:21;18.50;91.10
15700;DHT22;7950;42.744;23.174;2022-10-16T09:09:08;18.60;88.70
15700;DHT22;7950;42.744;23.174;2022-10-16T09:11:45;18.40;87.00
15700;DHT22;7950;42.744;23.174;2022-10-16T09:17:28;18.20;87.00
15700;DHT22;7950;42.744;23.174;2022-10-16T09:20:27;18.50;86.50
15700;DHT22;7950;42.744;23.174;2022-10-16T09:23:10;18.50;84.10
15700;DHT22;7950;42.744;23.174;2022-10-16T09:25:44;18.10;83.70
15700;DHT22;7950;42.744;23.174;2022-10-16T09:28:15;17.90;85.60
15700;DHT22;7950;42.744;23.174;2022-10-16T09:30:45;18.00;85.90
15700;DHT22;7950;42.744;23.174;2022-10-16T09:33:19;18.10;87.30
15700;DHT22;7950;42.744;23.174;2022-10-16T09:35:50;18.20;83.50
15700;DHT22;7950;42.744;23.174;2022-10-16T09:38:25;17.90;81.70
15700;DHT22;7950;42.744;23.174;2022-10-16T09:40:56;17.70;82.30
15700;DHT22;7950;42.744;23.174;2022-10-16T09:43:34;17.90;84.20
15700;DHT22;7950;42.744;23.174;2022-10-16T09:46:06;17.90;81.90
15700;DHT22;7950;42.744;23.174;2022-10-16T09:48:42;17.80;82.60
15700;DHT22;7950;42.744;23.174;2022-10-16T09:51:18;17.70;82.50
15700;DHT22;7950;42.744;23.174;2022-10-16T09:53:48;17.80;84.00
15700;DHT22;7950;42.744;23.174;2022-10-16T09:56:28;17.60;83.20
15700;DHT22;7950;42.744;23.174;2022-10-16T09:59:00;17.50;84.20
15700;DHT22;7950;42.744;23.174;2022-10-16T10:01:31;17.50;83.70
15700;DHT22;7950;42.744;23.174;2022-10-16T10:04:08;17.50;80.40
15700;DHT22;7950;42.744;23.174;2022-10-16T10:06:42;17.60;84.30
15700;DHT22;7950;42.744;23.174;2022-10-16T10:09:17;17.70;82.30
15700;DHT22;7950;42.744;23.174;2022-10-16T10:11:52;17.80;82.90
15700;DHT22;7950;42.744;23.174;2022-10-16T10:14:31;18.00;82.30
15700;DHT22;7950;42.744;23.174;2022-10-16T10:17:11;18.00;83.70
15700;DHT22;7950;42.744;23.174;2022-10-16T10:19:48;18.20;80.30
15700;DHT22;7950;42.744;23.174;2022-10-16T10:22:24;18.20;78.30
15700;DHT22;7950;42.744;23.174;2022-10-16T10:25:14;18.20;80.10
15700;DHT22;7950;42.744;23.174;2022-10-16T10:30:40;18.10;79.80
15700;DHT22;7950;42.744;23.174;2022-10-16T10:33:18;18.10;79.20
15700;DHT22;7950;42.744;23.174;2022-10-16T10:35:57;18.10;80.10
15700;DHT22;7950;42.744;23.174;2022-10-16T10:38:38;18.00;75.20
15700;DHT22;7950;42.744;23.174;2022-10-16T10:41:50;17.90;74.50
15700;DHT22;7950;42.744;23.174;2022-10-16T10:44:35;17.90;76.30
15700;DHT22;7950;42.744;23.174;2022-10-16T10:47:12;17.90;77.20
15700;DHT22;7950;42.744;23.174;2022-10-16T10:49:52;18.10;80.10
15700;DHT22;7950;42.744;23.174;2022-10-16T10:52:41;18.10;75.10
15700;DHT22;7950;42.744;23.174;2022-10-16T10:55:18;18.20;76.40
15700;DHT22;7950;42.744;23.174;2022-10-16T11:01:12;18.30;73.20
15700;DHT22;7950;42.744;23.174;2022-10-16T11:03:59;18.20;75.40
15700;DHT22;7950;42.744;23.174;2022-10-16T11:06:33;18.20;77.40
15700;DHT22;7950;42.744;23.174;2022-10-16T11:09:10;18.20;75.80
15700;DHT22;7950;42.744;23.174;2022-10-16T11:11:43;18.20;75.00
15700;DHT22;7950;42.744;23.174;2022-10-16T11:14:17;18.10;73.80
15700;DHT22;7950;42.744;23.174;2022-10-16T11:16:51;18.10;74.80
15700;DHT22;7950;42.744;23.174;2022-10-16T11:19:28;18.10;76.20
15700;DHT22;7950;42.744;23.174;2022-10-16T11:22:03;18.20;77.50
15700;DHT22;7950;42.744;23.174;2022-10-16T11:24:41;18.20;75.10
15700;DHT22;7950;42.744;23.174;2022-10-16T11:27:15;18.20;72.60
15700;DHT22;7950;42.744;23.174;2022-10-16T11:29:49;18.40;71.70
15700;DHT22;7950;42.744;23.174;2022-10-16T11:32:23;18.40;72.10
15700;DHT22;7950;42.744;23.174;2022-10-16T11:34:59;18.30;72.60
15700;DHT22;7950;42.744;23.174;2022-10-16T11:37:39;18.40;72.80
15700;DHT22;7950;42.744;23.174;2022-10-16T11:40:19;18.50;74.10
15700;DHT22;7950;42.744;23.174;2022-10-16T11:42:54;18.70;73.90
15700;DHT22;7950;42.744;23.174;2022-10-16T11:45:33;18.90;73.30
15700;DHT22;7950;42.744;23.174;2022-10-16T11:48:12;19.00;71.80
15700;DHT22;7950;42.744;23.174;2022-10-16T11:50:48;18.90;68.70
15700;DHT22;7950;42.744;23.174;2022-10-16T11:53:27;18.80;70.40
15700;DHT22;7950;42.744;23.174;2022-10-16T11:55:58;18.80;71.10
15700;DHT22;7950;42.744;23.174;2022-10-16T11:58:29;18.70;70.90
15700;DHT22;7950;42.744;23.174;2022-10-16T12:01:07;18.70;72.80
15700;DHT22;7950;42.744;23.174;2022-10-16T12:03:45;18.90;72.30
15700;DHT22;7950;42.744;23.174;2022-10-16T12:06:30;18.80;70.30
15700;DHT22;7950;42.744;23.174;2022-10-16T12:09:00;18.80;70.90
15700;DHT22;7950;42.744;23.174;2022-10-16T12:11:36;18.70;68.30
15700;DHT22;7950;42.744;23.174;2022-10-16T12:14:32;18.70;69.30
15700;DHT22;7950;42.744;23.174;2022-10-16T12:17:33;18.50;70.60
15700;DHT22;7950;42.744;23.174;2022-10-16T12:20:21;18.50;72.20
15700;DHT22;7950;42.744;23.174;2022-10-16T12:22:52;18.60;73.30
15700;DHT22;7950;42.744;23.174;2022-10-16T12:25:24;18.70;71.70
15700;DHT22;7950;42.744;23.174;2022-10-16T12:27:58;19.00;72.00
15700;DHT22;7950;42.744;23.174;2022-10-16T12:30:30;19.20;71.70
15700;DHT22;7950;42.744;23.174;2022-10-16T12:33:04;19.30;70.10
15700;DHT22;7950;42.744;23.174;2022-10-16T12:35:35;19.40;68.00
15700;DHT22;7950;42.744;23.174;2022-10-16T12:38:17;19.40;69.60
15700;DHT22;7950;42.744;23.174;2022-10-16T12:40:47;19.30;70.00
15700;DHT22;7950;42.744;23.174;2022-10-16T12:43:36;19.30;68.60
15700;DHT22;7950;42.744;23.174;2022-10-16T12:46:34;19.20;69.10
15700;DHT22;7950;42.744;23.174;2022-10-16T12:49:21;19.20;69.60
15700;DHT22;7950;42.744;23.174;2022-10-16T12:51:53;19.10;69.10
15700;DHT22;7950;42.744;23.174;2022-10-16T12:54:27;19.10;68.60
15700;DHT22;7950;42.744;23.174;2022-10-16T12:57:09;19.10;67.60
15700;DHT22;7950;42.744;23.174;2022-10-16T12:59:50;19.00;68.80
15700;DHT22;7950;42.744;23.174;2022-10-16T13:02:46;19.00;68.80
15700;DHT22;7950;42.744;23.174;2022-10-16T13:05:33;18.90;68.30
15700;DHT22;7950;42.744;23.174;2022-10-16T13:08:19;18.80;68.40
15700;DHT22;7950;42.744;23.174;2022-10-16T13:10:59;18.80;68.80
15700;DHT22;7950;42.744;23.174;2022-10-16T13:13:47;18.90;70.70
15700;DHT22;7950;42.744;23.174;2022-10-16T13:16:25;18.90;68.40
15700;DHT22;7950;42.744;23.174;2022-10-16T13:19:04;19.00;66.50
15700;DHT22;7950;42.744;23.174;2022-10-16T13:21:42;19.00;67.00
15700;DHT22;7950;42.744;23.174;2022-10-16T13:24:23;19.00;61.10
15700;DHT22;7950;42.744;23.174;2022-10-16T13:26:57;18.90;59.60
15700;DHT22;7950;42.744;23.174;2022-10-16T13:29:30;18.90;60.70
15700;DHT22;7950;42.744;23.174;2022-10-16T13:32:01;19.00;59.10
15700;DHT22;7950;42.744;23.174;2022-10-16T13:34:44;18.90;58.40
15700;DHT22;7950;42.744;23.174;2022-10-16T13:37:17;18.90;59.50
15700;DHT22;7950;42.744;23.174;2022-10-16T13:39:46;18.90;58.90
15700;DHT22;7950;42.744;23.174;2022-10-16T13:42:22;18.90;59.20
15700;DHT22;7950;42.744;23.174;2022-10-16T13:44:55;18.90;59.00
15700;DHT22;7950;42.744;23.174;2022-10-16T13:47:26;18.90;59.20
15700;DHT22;7950;42.744;23.174;2022-10-16T13:50:00;18.80;58.90
15700;DHT22;7950;42.744;23.174;2022-10-16T13:52:29;18.70;59.70
15700;DHT22;7950;42.744;23.174;2022-10-16T13:54:58;18.70;59.70
15700;DHT22;7950;42.744;23.174;2022-10-16T13:57:28;18.60;59.40
15700;DHT22;7950;42.744;23.174;2022-10-16T13:59:57;18.60;60.20
15700;DHT22;7950;42.744;23.174;2022-10-16T14:02:30;18.60;61.10
15700;DHT22;7950;42.744;23.174;2022-10-16T14:05:02;18.60;61.10
15700;DHT22;7950;42.744;23.174;2022-10-16T14:07:33;18.60;61.40
15700;DHT22;7950;42.744;23.174;2022-10-16T14:10:05;18.60;60.40
15700;DHT22;7950;42.744;23.174;2022-10-16T14:12:34;18.50;60.30
15700;DHT22;7950;42.744;23.174;2022-10-16T14:15:04;18.50;60.20
15700;DHT22;7950;42.744;23.174;2022-10-16T14:17:35;18.40;60.70
15700;DHT22;7950;42.744;23.174;2022-10-16T14:20:05;18.40;61.40
15700;DHT22;7950;42.744;23.174;2022-10-16T14:22:36;18.40;60.90
15700;DHT22;7950;42.744;23.174;2022-10-16T14:25:21;18.30;60.70
15700;DHT22;7950;42.744;23.174;2022-10-16T14:28:19;18.30;60.80
15700;DHT22;7950;42.744;23.174;2022-10-16T14:30:51;18.20;61.00
15700;DHT22;7950;42.744;23.174;2022-10-16T14:33:32;18.10;60.70
15700;DHT22;7950;42.744;23.174;2022-10-16T14:36:03;18.10;61.00
15700;DHT22;7950;42.744;23.174;2022-10-16T14:38:33;18.00;61.20
15700;DHT22;7950;42.744;23.174;2022-10-16T14:41:03;18.00;61.90
15700;DHT22;7950;42.744;23.174;2022-10-16T14:43:34;17.90;62.80
15700;DHT22;7950;42.744;23.174;2022-10-16T14:46:05;17.90;63.20
15700;DHT22;7950;42.744;23.174;2022-10-16T14:48:40;17.80;63.30
15700;DHT22;7950;42.744;23.174;2022-10-16T14:51:13;17.90;64.60
15700;DHT22;7950;42.744;23.174;2022-10-16T14:53:42;17.80;64.20
15700;DHT22;7950;42.744;23.174;2022-10-16T14:56:16;17.70;64.40
15700;DHT22;7950;42.744;23.174;2022-10-16T14:58:46;17.60;64.30
15700;DHT22;7950;42.744;23.174;2022-10-16T15:01:15;17.40;65.00
15700;DHT22;7950;42.744;23.174;2022-10-16T15:04:10;17.40;65.70
15700;DHT22;7950;42.744;23.174;2022-10-16T15:06:40;17.20;66.60
15700;DHT22;7950;42.744;23.174;2022-10-16T15:09:08;17.10;66.20
15700;DHT22;7950;42.744;23.174;2022-10-16T15:11:37;17.00;66.20
15700;DHT22;7950;42.744;23.174;2022-10-16T15:14:06;16.80;67.10
15700;DHT22;7950;42.744;23.174;2022-10-16T15:16:34;16.70;67.80
15700;DHT22;7950;42.744;23.174;2022-10-16T15:19:03;16.60;68.80
15700;DHT22;7950;42.744;23.174;2022-10-16T15:21:32;16.40;69.60
15700;DHT22;7950;42.744;23.174;2022-10-16T15:24:01;16.30;70.50
15700;DHT22;7950;42.744;23.174;2022-10-16T15:26:30;16.20;71.20
15700;DHT22;7950;42.744;23.174;2022-10-16T15:28:58;16.00;72.00
15700;DHT22;7950;42.744;23.174;2022-10-16T15:31:27;15.80;72.80
15700;DHT22;7950;42.744;23.174;2022-10-16T15:34:03;15.80;73.50
15700;DHT22;7950;42.744;23.174;2022-10-16T15:36:36;15.60;74.00
15700;DHT22;7950;42.744;23.174;2022-10-16T15:39:05;15.50;74.60
15700;DHT22;7950;42.744;23.174;2022-10-16T15:41:38;15.40;75.20
15700;DHT22;7950;42.744;23.174;2022-10-16T15:44:06;15.20;76.10
15700;DHT22;7950;42.744;23.174;2022-10-16T15:46:35;15.20;76.80
15700;DHT22;7950;42.744;23.174;2022-10-16T15:49:04;15.00;77.30
15700;DHT22;7950;42.744;23.174;2022-10-16T15:51:38;14.90;77.90
15700;DHT22;7950;42.744;23.174;2022-10-16T15:54:18;14.80;78.90
15700;DHT22;7950;42.744;23.174;2022-10-16T15:56:49;14.60;79.50
15700;DHT22;7950;42.744;23.174;2022-10-16T15:59:18;14.50;80.60
15700;DHT22;7950;42.744;23.174;2022-10-16T16:01:46;14.40;81.30
15700;DHT22;7950;42.744;23.174;2022-10-16T16:04:15;14.30;82.10
15700;DHT22;7950;42.744;23.174;2022-10-16T16:07:05;14.30;82.70
15700;DHT22;7950;42.744;23.174;2022-10-16T16:09:34;14.10;83.60
15700;DHT22;7950;42.744;23.174;2022-10-16T16:12:03;14.00;85.10
15700;DHT22;7950;42.744;23.174;2022-10-16T16:14:50;13.80;87.40
15700;DHT22;7950;42.744;23.174;2022-10-16T16:17:19;13.70;90.00
15700;DHT22;7950;42.744;23.174;2022-10-16T16:19:49;13.60;91.40
15700;DHT22;7950;42.744;23.174;2022-10-16T16:22:19;13.40;92.60
15700;DHT22;7950;42.744;23.174;2022-10-16T16:24:48;13.30;93.20